Wallace, Michigan
Current Conditions -  °F | °C
As of 1:55 AM on Sunday 26 Oct 2014 (Local Time) from KMNM Reporting Station
Clear Clear  
Wind Chill: 45°   Ceiling: Unl
Heat Index: 45°   Visibility: 10mi
Dew Point: 27°   Wind: 3mph
Humidity: 49%   Direction: 300°WNW
Pressure: 29.9"   Gusts: NA
Location:  45.32°N, 87.6°W
Report Text: KMNM 260655Z AUTO 30003KT 10SM CLR 07/M03 A2990 RMK AO1
Loading
Personal Weather Stations






























Interactive Weather Map
Tropical Storm Tracking
New forecast layout! Learn more

10-Day Weather Forecast

Advertisements
Track Severe Weather on mobile